createdAt,value
2018-08-20T00:01:04.695Z,91.90
2018-08-20T00:03:42.620Z,91.90
2018-08-20T00:06:13.469Z,92.20
2018-08-20T00:08:44.317Z,92.40
2018-08-20T00:11:15.227Z,92.30
2018-08-20T00:13:45.986Z,92.40
2018-08-20T00:16:16.925Z,92.50
2018-08-20T00:18:47.737Z,92.50
2018-08-20T00:21:18.549Z,92.70
2018-08-20T00:23:49.349Z,92.90
2018-08-20T00:26:20.191Z,93.00
2018-08-20T00:28:51.000Z,93.10
2018-08-20T00:31:21.801Z,93.10
2018-08-20T00:33:52.611Z,93.10
2018-08-20T00:36:23.570Z,93.20
2018-08-20T00:38:54.426Z,93.30
2018-08-20T00:41:25.241Z,93.30
2018-08-20T00:43:56.246Z,93.30
2018-08-20T00:46:27.455Z,93.20
2018-08-20T00:48:58.288Z,93.20
2018-08-20T00:51:29.179Z,93.10
2018-08-20T00:53:59.978Z,93.20
2018-08-20T00:56:30.879Z,93.30
2018-08-20T00:59:02.624Z,93.20
2018-08-20T01:01:33.895Z,93.40
2018-08-20T01:04:04.934Z,93.30
2018-08-20T01:06:35.748Z,93.50
2018-08-20T01:09:08.766Z,93.60
2018-08-20T01:11:39.625Z,93.70
2018-08-20T01:14:10.437Z,93.80
2018-08-20T01:16:41.366Z,93.90
2018-08-20T01:19:12.233Z,94.00
2018-08-20T01:21:43.125Z,93.80
2018-08-20T01:24:13.906Z,93.50
2018-08-20T01:26:44.698Z,93.70
2018-08-20T01:29:15.573Z,94.10
2018-08-20T01:31:46.414Z,94.20
2018-08-20T01:34:17.331Z,94.20
2018-08-20T01:36:48.189Z,94.20
2018-08-20T01:39:19.059Z,94.20
2018-08-20T01:41:49.855Z,94.40
2018-08-20T01:44:20.840Z,94.50
2018-08-20T01:46:51.742Z,94.50
2018-08-20T01:49:22.569Z,94.60
2018-08-20T01:51:53.441Z,94.60
2018-08-20T01:54:24.262Z,94.60
2018-08-20T01:56:55.104Z,94.60
2018-08-20T01:59:25.988Z,94.60
2018-08-20T02:01:56.845Z,94.50
2018-08-20T02:04:27.672Z,94.80
2018-08-20T02:06:58.615Z,94.40
2018-08-20T02:09:29.347Z,94.50
2018-08-20T02:12:00.210Z,94.60
2018-08-20T02:14:31.010Z,94.60
2018-08-20T02:17:01.926Z,94.70
2018-08-20T02:19:32.725Z,94.70
2018-08-20T02:22:03.777Z,94.60
2018-08-20T02:24:34.720Z,94.70
2018-08-20T02:27:05.813Z,94.70
2018-08-20T02:29:36.729Z,94.70
2018-08-20T02:32:07.773Z,94.80
2018-08-20T02:34:38.717Z,95.10
2018-08-20T02:37:09.695Z,95.30
2018-08-20T02:39:40.610Z,95.50
2018-08-20T02:42:11.504Z,95.60
2018-08-20T02:44:42.520Z,95.70
2018-08-20T02:47:13.437Z,95.60
2018-08-20T02:49:44.258Z,95.60
2018-08-20T02:52:15.054Z,95.60
2018-08-20T02:54:45.885Z,95.70
2018-08-20T02:57:16.666Z,95.70
2018-08-20T02:59:47.536Z,95.70
2018-08-20T03:02:18.416Z,95.60
2018-08-20T03:04:49.228Z,95.70
2018-08-20T03:07:20.087Z,95.70
2018-08-20T03:09:50.973Z,95.90
2018-08-20T03:12:21.853Z,95.90
2018-08-20T03:14:52.565Z,96.10
2018-08-20T03:17:23.477Z,96.10
2018-08-20T03:19:54.328Z,96.60
2018-08-20T03:22:25.169Z,96.30
2018-08-20T03:24:55.959Z,96.40
2018-08-20T03:27:27.720Z,96.50
2018-08-20T03:29:58.625Z,96.50
2018-08-20T03:32:29.449Z,96.40
2018-08-20T03:35:00.175Z,96.40
2018-08-20T03:37:31.036Z,96.40
2018-08-20T03:40:02.095Z,96.50
2018-08-20T03:42:33.044Z,96.60
2018-08-20T03:45:04.227Z,96.70
2018-08-20T03:47:35.261Z,96.70
2018-08-20T03:50:09.337Z,96.80
2018-08-20T03:52:40.304Z,97.00
2018-08-20T03:55:11.124Z,97.10
2018-08-20T03:57:41.985Z,97.20
2018-08-20T04:00:13.602Z,97.30
2018-08-20T04:02:44.519Z,97.40
2018-08-20T04:05:15.259Z,97.40
2018-08-20T04:07:46.137Z,97.40
2018-08-20T04:10:16.982Z,97.50
2018-08-20T04:12:47.821Z,97.40
2018-08-20T04:15:18.551Z,97.30
2018-08-20T04:17:49.411Z,97.40
2018-08-20T04:20:20.189Z,97.30
2018-08-20T04:22:51.097Z,97.30
2018-08-20T04:25:21.934Z,97.10
2018-08-20T04:27:52.765Z,96.90
2018-08-20T04:30:23.717Z,96.60
2018-08-20T04:32:54.484Z,96.10
2018-08-20T04:35:25.317Z,95.40
2018-08-20T04:37:56.136Z,94.70
2018-08-20T04:40:26.953Z,94.10
2018-08-20T04:42:57.863Z,93.60
2018-08-20T04:45:28.953Z,93.10
2018-08-20T04:47:59.802Z,92.70
2018-08-20T04:50:30.771Z,92.30
2018-08-20T04:53:01.389Z,91.70
2018-08-20T04:55:32.291Z,91.20
2018-08-20T05:55:37.957Z,60.60
2018-08-20T05:58:10.462Z,60.30
2018-08-20T06:00:41.658Z,58.60
2018-08-20T06:03:13.461Z,57.10
2018-08-20T06:05:44.811Z,55.90
2018-08-20T06:08:16.157Z,54.20
2018-08-20T06:10:47.609Z,53.00
2018-08-20T06:13:18.861Z,52.00
2018-08-20T06:15:50.015Z,51.10
2018-08-20T06:18:21.064Z,51.80
2018-08-20T06:20:52.382Z,51.50
2018-08-20T06:23:23.858Z,51.40
2018-08-20T06:25:55.284Z,51.80
2018-08-20T06:28:27.301Z,50.80
2018-08-20T06:30:58.518Z,49.20
2018-08-20T06:33:30.796Z,48.30
2018-08-20T06:36:03.831Z,46.90
2018-08-20T06:38:34.986Z,44.60
2018-08-20T06:41:06.271Z,44.00
2018-08-20T06:43:37.414Z,44.10
2018-08-20T06:46:09.915Z,44.20
2018-08-20T06:48:41.046Z,43.10
2018-08-20T06:51:12.130Z,42.80
2018-08-20T06:53:43.285Z,41.10
2018-08-20T06:56:14.734Z,41.10
2018-08-20T06:58:45.951Z,40.90
2018-08-20T07:01:17.894Z,40.10
2018-08-20T07:03:52.362Z,39.70
2018-08-20T07:06:23.546Z,38.70
2018-08-20T07:08:55.268Z,39.10
2018-08-20T07:11:26.536Z,39.50
2018-08-20T07:13:57.640Z,38.10
2018-08-20T07:16:29.413Z,38.50
2018-08-20T07:19:00.526Z,37.70
2018-08-20T07:21:32.344Z,35.90
2018-08-20T07:24:04.396Z,35.60
2018-08-20T07:26:35.393Z,34.80
2018-08-20T07:29:06.558Z,34.80
2018-08-20T07:31:37.545Z,34.80
2018-08-20T07:34:08.653Z,34.30
2018-08-20T07:36:39.628Z,34.80
2018-08-20T07:39:10.833Z,34.50
2018-08-20T07:41:41.935Z,34.50
2018-08-20T07:44:13.044Z,33.70
2018-08-20T07:46:43.997Z,32.50
2018-08-20T07:49:19.149Z,32.80
2018-08-20T07:51:51.253Z,31.40
2018-08-20T07:54:22.994Z,30.60
2018-08-20T07:56:54.413Z,31.20
2018-08-20T07:59:25.534Z,31.40
2018-08-20T08:01:57.321Z,29.60
2018-08-20T08:04:28.404Z,29.60
2018-08-20T08:06:59.870Z,30.10
2018-08-20T08:09:31.904Z,30.50
2018-08-20T08:12:03.126Z,30.70
2018-08-20T08:14:34.394Z,29.80
2018-08-20T08:17:05.361Z,29.30
2018-08-20T08:19:36.538Z,29.50
2018-08-20T08:22:07.620Z,29.70
2018-08-20T08:24:38.650Z,29.10
2018-08-20T08:27:09.613Z,29.50
2018-08-20T08:29:40.619Z,29.00
2018-08-20T08:32:11.537Z,29.20
2018-08-20T08:34:42.410Z,28.70
2018-08-20T08:37:13.401Z,29.40
2018-08-20T08:39:44.354Z,29.10
2018-08-20T08:42:15.316Z,29.00
2018-08-20T08:44:46.383Z,29.60
2018-08-20T08:47:17.345Z,29.40
2018-08-20T08:49:48.452Z,29.70
2018-08-20T08:52:19.395Z,29.40
2018-08-20T08:54:50.312Z,29.90
2018-08-20T08:57:21.566Z,29.90
2018-08-20T08:59:52.588Z,29.50
2018-08-20T09:02:23.430Z,29.20
2018-08-20T09:04:55.058Z,29.30
2018-08-20T09:07:25.966Z,29.70
2018-08-20T09:09:57.925Z,28.90
2018-08-20T09:12:28.951Z,29.80
2018-08-20T09:15:04.388Z,30.20
2018-08-20T09:17:35.582Z,29.20
2018-08-20T09:20:09.387Z,29.10
2018-08-20T09:22:40.741Z,29.90
2018-08-20T09:25:13.139Z,29.70
2018-08-20T09:27:45.343Z,29.70
2018-08-20T09:30:19.794Z,30.00
2018-08-20T09:32:50.967Z,29.30
2018-08-20T09:35:22.031Z,29.40
2018-08-20T09:37:53.101Z,29.70
2018-08-20T09:40:25.938Z,29.20
2018-08-20T09:42:56.904Z,29.00
2018-08-20T09:45:29.602Z,30.20
2018-08-20T09:48:00.619Z,30.50
2018-08-20T09:50:33.427Z,31.80
2018-08-20T09:53:04.431Z,31.60
2018-08-20T09:55:35.486Z,32.40
2018-08-20T09:58:06.755Z,31.50
2018-08-20T10:00:41.810Z,31.40
2018-08-20T10:03:12.777Z,31.70
2018-08-20T10:05:43.625Z,32.40
2018-08-20T10:08:14.489Z,31.50
2018-08-20T10:10:45.440Z,31.50
2018-08-20T10:13:16.425Z,32.20
2018-08-20T10:15:47.311Z,32.50
2018-08-20T10:18:19.180Z,32.40
2018-08-20T10:20:50.101Z,31.40
2018-08-20T10:23:21.037Z,32.00
2018-08-20T10:25:52.039Z,31.30
2018-08-20T10:28:23.002Z,31.10
2018-08-20T10:30:54.375Z,30.60
2018-08-20T10:33:25.401Z,31.70
2018-08-20T10:35:56.324Z,32.20
2018-08-20T10:38:27.347Z,30.00
2018-08-20T10:40:58.351Z,31.60
2018-08-20T10:43:29.448Z,31.90
2018-08-20T10:46:05.407Z,31.00
2018-08-20T10:48:36.529Z,31.40
2018-08-20T10:51:08.557Z,31.30
2018-08-20T10:53:39.525Z,31.00
2018-08-20T10:56:10.569Z,31.10
2018-08-20T10:58:41.935Z,31.30
2018-08-20T11:01:13.001Z,30.60
2018-08-20T11:03:47.889Z,30.00
2018-08-20T11:06:18.890Z,29.40
2018-08-20T11:08:50.379Z,30.80
2018-08-20T11:11:21.561Z,30.40
2018-08-20T11:13:55.688Z,30.50
2018-08-20T11:16:26.953Z,30.50
2018-08-20T11:18:58.878Z,30.30
2018-08-20T11:21:29.958Z,29.90
2018-08-20T11:24:01.136Z,30.40
2018-08-20T11:26:33.622Z,31.90
2018-08-20T11:29:15.949Z,33.30
2018-08-20T11:31:47.891Z,33.40
2018-08-20T11:34:20.264Z,34.00
2018-08-20T11:36:51.394Z,34.70
2018-08-20T11:39:22.429Z,34.90
2018-08-20T11:41:53.613Z,36.30
2018-08-20T11:44:24.920Z,37.10
2018-08-20T11:46:56.804Z,37.10
2018-08-20T15:56:42.581Z,36.80
2018-08-20T15:59:13.698Z,71.80
2018-08-20T16:01:44.945Z,71.80
2018-08-20T16:04:16.193Z,72.20
2018-08-20T16:06:48.729Z,70.50
2018-08-20T16:09:20.761Z,71.00
2018-08-20T16:11:52.957Z,70.80
2018-08-20T16:14:24.094Z,71.50
2018-08-20T16:16:57.013Z,71.80
2018-08-20T16:19:29.159Z,74.00
2018-08-20T16:22:00.156Z,76.50
2018-08-20T16:24:31.177Z,76.40
2018-08-20T16:27:02.380Z,76.90
2018-08-20T16:44:16.269Z,77.20
2018-08-20T16:46:47.352Z,75.40
2018-08-20T16:49:18.462Z,80.00
2018-08-20T16:51:49.507Z,80.10
2018-08-20T16:54:20.747Z,80.20
2018-08-20T16:56:52.747Z,80.10
2018-08-20T16:59:23.922Z,80.20
2018-08-20T17:01:55.699Z,80.00
2018-08-20T17:04:39.970Z,80.20
2018-08-20T17:07:11.132Z,79.80
2018-08-20T17:09:42.225Z,80.20
2018-08-20T17:12:13.470Z,79.90
2018-08-20T17:14:44.445Z,80.40
2018-08-20T17:20:22.333Z,79.60
2018-08-20T17:23:04.059Z,79.70
2018-08-20T17:25:35.092Z,79.40
2018-08-20T17:28:06.217Z,79.80
2018-08-20T17:30:37.155Z,80.50
2018-08-20T17:33:09.282Z,80.50
2018-08-20T17:35:42.593Z,80.80
2018-08-20T17:38:14.500Z,82.40
2018-08-20T17:40:45.509Z,81.20
2018-08-20T17:43:16.522Z,81.20
2018-08-20T17:45:47.452Z,81.80
2018-08-20T17:48:31.973Z,81.10
2018-08-20T17:51:04.537Z,82.10
2018-08-20T17:56:43.382Z,82.30
2018-08-20T17:59:14.714Z,82.00
2018-08-20T18:01:49.998Z,82.70
2018-08-20T18:04:24.007Z,83.00
2018-08-20T18:07:08.787Z,83.80
2018-08-20T18:09:40.805Z,84.50
2018-08-20T18:12:19.200Z,84.60
2018-08-20T18:14:57.881Z,85.30
2018-08-20T18:17:30.784Z,85.80
2018-08-20T18:20:11.395Z,87.10
2018-08-20T18:22:46.461Z,87.70
2018-08-20T18:29:02.818Z,88.40
2018-08-20T18:31:37.949Z,89.10
2018-08-20T18:34:09.302Z,90.00
2018-08-20T18:40:18.997Z,90.00
2018-08-20T18:56:35.956Z,90.20
2018-08-20T18:59:07.258Z,91.50
2018-08-20T19:01:38.671Z,91.70
2018-08-20T19:04:09.574Z,91.80
2018-08-20T19:06:40.683Z,92.00
2018-08-20T19:09:11.728Z,91.60
2018-08-20T19:11:43.792Z,91.90
2018-08-20T19:14:18.447Z,92.20
2018-08-20T19:16:49.513Z,92.50
2018-08-20T19:19:21.349Z,92.60
2018-08-20T19:21:52.272Z,92.50
2018-08-20T19:24:23.800Z,92.60
2018-08-20T19:26:57.216Z,92.60
2018-08-20T19:29:29.239Z,92.90
2018-08-20T19:32:00.317Z,92.70
2018-08-20T19:34:31.584Z,92.60
2018-08-20T19:37:02.616Z,92.50
2018-08-20T19:39:33.563Z,92.60
2018-08-20T19:42:07.532Z,92.60
2018-08-20T19:45:01.477Z,92.60
2018-08-20T19:47:33.695Z,92.60
2018-08-20T19:50:13.462Z,92.50
2018-08-20T19:52:44.490Z,93.00
2018-08-20T19:55:15.744Z,92.60
2018-08-20T19:58:02.783Z,92.60
2018-08-20T20:03:59.709Z,92.80
2018-08-20T20:06:41.365Z,92.90
2018-08-20T20:09:38.887Z,93.00
2018-08-20T20:12:14.748Z,93.00
2018-08-20T20:14:47.793Z,92.30
2018-08-20T20:17:19.333Z,92.40
2018-08-20T20:19:51.675Z,92.40
2018-08-20T20:22:25.610Z,92.50
2018-08-20T20:24:56.583Z,92.40
2018-08-20T20:27:27.787Z,92.50
2018-08-20T20:30:00.857Z,92.80
2018-08-20T20:32:34.894Z,92.90
2018-08-20T20:35:08.878Z,92.80
2018-08-20T20:37:58.330Z,92.80
2018-08-20T20:40:29.524Z,93.10
2018-08-20T20:43:02.657Z,92.60
2018-08-20T20:45:33.887Z,92.50
2018-08-20T21:07:03.096Z,92.80
2018-08-20T21:10:12.764Z,92.60
2018-08-20T21:12:46.686Z,92.90
